sensor_id;sensor_type;location;lat;lon;timestamp;P1;durP1;ratioP1;P2;durP2;ratioP2
75984;SDS011;65033;44.660;37.758;2022-12-18T00:00:28;7.03;;;4.70;;
75984;SDS011;65033;44.660;37.758;2022-12-18T00:01:33;6.03;;;4.38;;
75984;SDS011;65033;44.660;37.758;2022-12-18T00:02:38;6.32;;;4.70;;
75984;SDS011;65033;44.660;37.758;2022-12-18T00:03:41;6.15;;;4.72;;
75984;SDS011;65033;44.660;37.758;2022-12-18T00:04:46;6.45;;;4.72;;
75984;SDS011;65033;44.660;37.758;2022-12-18T00:05:49;5.85;;;4.65;;
75984;SDS011;65033;44.660;37.758;2022-12-18T00:06:53;5.93;;;4.70;;
75984;SDS011;65033;44.660;37.758;2022-12-18T00:07:57;5.65;;;5.05;;
75984;SDS011;65033;44.660;37.758;2022-12-18T00:09:00;6.57;;;4.60;;
75984;SDS011;65033;44.660;37.758;2022-12-18T00:10:04;5.20;;;4.47;;
75984;SDS011;65033;44.660;37.758;2022-12-18T00:11:10;5.82;;;4.80;;
75984;SDS011;65033;44.660;37.758;2022-12-18T00:12:14;6.88;;;4.95;;
75984;SDS011;65033;44.660;37.758;2022-12-18T00:13:22;6.20;;;4.95;;
75984;SDS011;65033;44.660;37.758;2022-12-18T00:14:26;6.15;;;5.15;;
75984;SDS011;65033;44.660;37.758;2022-12-18T00:15:29;6.63;;;5.00;;
75984;SDS011;65033;44.660;37.758;2022-12-18T00:16:32;5.38;;;4.55;;
75984;SDS011;65033;44.660;37.758;2022-12-18T00:17:37;7.50;;;4.97;;
75984;SDS011;65033;44.660;37.758;2022-12-18T00:18:41;4.93;;;4.43;;
75984;SDS011;65033;44.660;37.758;2022-12-18T00:19:46;5.88;;;4.85;;
75984;SDS011;65033;44.660;37.758;2022-12-18T00:20:49;5.90;;;4.57;;
75984;SDS011;65033;44.660;37.758;2022-12-18T00:21:52;5.80;;;4.88;;
75984;SDS011;65033;44.660;37.758;2022-12-18T00:22:55;5.43;;;4.45;;
75984;SDS011;65033;44.660;37.758;2022-12-18T00:23:59;5.97;;;4.55;;
75984;SDS011;65033;44.660;37.758;2022-12-18T00:25:03;4.88;;;4.38;;
75984;SDS011;65033;44.660;37.758;2022-12-18T00:26:07;4.55;;;4.10;;
75984;SDS011;65033;44.660;37.758;2022-12-18T00:27:16;6.85;;;4.68;;
75984;SDS011;65033;44.660;37.758;2022-12-18T00:28:19;5.90;;;5.00;;
75984;SDS011;65033;44.660;37.758;2022-12-18T00:29:22;6.45;;;5.00;;
75984;SDS011;65033;44.660;37.758;2022-12-18T00:30:25;5.97;;;4.95;;
75984;SDS011;65033;44.660;37.758;2022-12-18T00:31:29;5.35;;;4.72;;
75984;SDS011;65033;44.660;37.758;2022-12-18T00:32:34;5.70;;;4.78;;
75984;SDS011;65033;44.660;37.758;2022-12-18T00:33:37;7.57;;;4.80;;
75984;SDS011;65033;44.660;37.758;2022-12-18T00:34:44;5.38;;;4.50;;
75984;SDS011;65033;44.660;37.758;2022-12-18T00:35:49;5.70;;;4.65;;
75984;SDS011;65033;44.660;37.758;2022-12-18T00:36:52;5.15;;;4.57;;
75984;SDS011;65033;44.660;37.758;2022-12-18T00:37:56;5.60;;;4.80;;
75984;SDS011;65033;44.660;37.758;2022-12-18T00:39:00;6.22;;;4.85;;
75984;SDS011;65033;44.660;37.758;2022-12-18T00:40:07;5.80;;;5.03;;
75984;SDS011;65033;44.660;37.758;2022-12-18T00:41:12;5.63;;;4.57;;
75984;SDS011;65033;44.660;37.758;2022-12-18T00:42:38;5.25;;;4.55;;
75984;SDS011;65033;44.660;37.758;2022-12-18T00:43:59;6.05;;;5.10;;
75984;SDS011;65033;44.660;37.758;2022-12-18T00:45:03;5.65;;;4.35;;
75984;SDS011;65033;44.660;37.758;2022-12-18T00:46:10;5.60;;;4.60;;
75984;SDS011;65033;44.660;37.758;2022-12-18T00:47:13;5.80;;;4.75;;
75984;SDS011;65033;44.660;37.758;2022-12-18T00:48:16;5.38;;;4.65;;
75984;SDS011;65033;44.660;37.758;2022-12-18T00:49:19;6.28;;;4.88;;
75984;SDS011;65033;44.660;37.758;2022-12-18T00:50:24;7.35;;;4.63;;
75984;SDS011;65033;44.660;37.758;2022-12-18T00:51:28;5.78;;;4.18;;
75984;SDS011;65033;44.660;37.758;2022-12-18T00:53:34;5.07;;;4.45;;
75984;SDS011;65033;44.660;37.758;2022-12-18T00:54:37;5.07;;;4.57;;
75984;SDS011;65033;44.660;37.758;2022-12-18T00:55:40;5.65;;;4.72;;
75984;SDS011;65033;44.660;37.758;2022-12-18T00:56:44;6.25;;;4.88;;
75984;SDS011;65033;44.660;37.758;2022-12-18T00:57:51;7.30;;;4.93;;
75984;SDS011;65033;44.660;37.758;2022-12-18T00:58:55;5.18;;;4.60;;
75984;SDS011;65033;44.660;37.758;2022-12-18T00:59:58;5.47;;;4.70;;
75984;SDS011;65033;44.660;37.758;2022-12-18T01:01:03;6.35;;;5.18;;
75984;SDS011;65033;44.660;37.758;2022-12-18T01:02:09;5.38;;;4.75;;
75984;SDS011;65033;44.660;37.758;2022-12-18T01:03:13;5.35;;;4.80;;
75984;SDS011;65033;44.660;37.758;2022-12-18T01:04:18;5.13;;;4.43;;
75984;SDS011;65033;44.660;37.758;2022-12-18T01:05:21;5.13;;;4.63;;
75984;SDS011;65033;44.660;37.758;2022-12-18T01:06:27;5.28;;;4.55;;
75984;SDS011;65033;44.660;37.758;2022-12-18T01:07:30;5.18;;;4.65;;
75984;SDS011;65033;44.660;37.758;2022-12-18T01:08:33;6.60;;;5.05;;
75984;SDS011;65033;44.660;37.758;2022-12-18T01:09:38;5.60;;;4.35;;
75984;SDS011;65033;44.660;37.758;2022-12-18T01:10:41;6.13;;;4.47;;
75984;SDS011;65033;44.660;37.758;2022-12-18T01:11:44;6.07;;;5.05;;
75984;SDS011;65033;44.660;37.758;2022-12-18T01:12:47;7.28;;;4.53;;
75984;SDS011;65033;44.660;37.758;2022-12-18T01:13:52;6.05;;;5.10;;
75984;SDS011;65033;44.660;37.758;2022-12-18T01:14:56;5.47;;;4.47;;
75984;SDS011;65033;44.660;37.758;2022-12-18T01:16:00;5.72;;;4.97;;
75984;SDS011;65033;44.660;37.758;2022-12-18T01:17:03;6.07;;;4.72;;
75984;SDS011;65033;44.660;37.758;2022-12-18T01:18:07;5.35;;;4.85;;
75984;SDS011;65033;44.660;37.758;2022-12-18T01:19:10;5.30;;;4.75;;
75984;SDS011;65033;44.660;37.758;2022-12-18T01:20:14;5.90;;;5.20;;
75984;SDS011;65033;44.660;37.758;2022-12-18T01:21:18;6.35;;;4.47;;
75984;SDS011;65033;44.660;37.758;2022-12-18T01:22:22;6.40;;;5.03;;
75984;SDS011;65033;44.660;37.758;2022-12-18T01:23:25;6.57;;;5.15;;
75984;SDS011;65033;44.660;37.758;2022-12-18T01:24:29;6.45;;;5.18;;
75984;SDS011;65033;44.660;37.758;2022-12-18T01:25:32;5.82;;;5.20;;
75984;SDS011;65033;44.660;37.758;2022-12-18T01:26:35;6.55;;;5.15;;
75984;SDS011;65033;44.660;37.758;2022-12-18T01:27:38;6.45;;;4.55;;
75984;SDS011;65033;44.660;37.758;2022-12-18T01:28:42;6.00;;;4.78;;
75984;SDS011;65033;44.660;37.758;2022-12-18T01:29:48;5.70;;;4.90;;
75984;SDS011;65033;44.660;37.758;2022-12-18T01:30:54;5.55;;;4.93;;
75984;SDS011;65033;44.660;37.758;2022-12-18T01:31:57;5.22;;;4.72;;
75984;SDS011;65033;44.660;37.758;2022-12-18T01:33:00;5.85;;;5.25;;
75984;SDS011;65033;44.660;37.758;2022-12-18T01:34:04;5.13;;;4.63;;
75984;SDS011;65033;44.660;37.758;2022-12-18T01:35:09;5.30;;;4.80;;
75984;SDS011;65033;44.660;37.758;2022-12-18T01:36:16;5.85;;;4.93;;
75984;SDS011;65033;44.660;37.758;2022-12-18T01:37:22;5.13;;;4.35;;
75984;SDS011;65033;44.660;37.758;2022-12-18T01:38:26;5.47;;;4.97;;
75984;SDS011;65033;44.660;37.758;2022-12-18T01:39:31;5.40;;;4.90;;
75984;SDS011;65033;44.660;37.758;2022-12-18T01:40:35;4.50;;;4.10;;
75984;SDS011;65033;44.660;37.758;2022-12-18T01:41:39;5.57;;;4.43;;
75984;SDS011;65033;44.660;37.758;2022-12-18T01:43:00;6.25;;;4.88;;
75984;SDS011;65033;44.660;37.758;2022-12-18T01:45:39;7.82;;;4.75;;
75984;SDS011;65033;44.660;37.758;2022-12-18T01:46:43;5.80;;;4.93;;
75984;SDS011;65033;44.660;37.758;2022-12-18T01:47:46;6.25;;;5.30;;
75984;SDS011;65033;44.660;37.758;2022-12-18T01:48:53;6.20;;;5.07;;
75984;SDS011;65033;44.660;37.758;2022-12-18T01:50:00;6.18;;;4.95;;
75984;SDS011;65033;44.660;37.758;2022-12-18T01:51:06;6.63;;;5.05;;
75984;SDS011;65033;44.660;37.758;2022-12-18T01:52:13;6.03;;;4.97;;
75984;SDS011;65033;44.660;37.758;2022-12-18T01:53:17;5.65;;;4.63;;
75984;SDS011;65033;44.660;37.758;2022-12-18T01:54:23;5.50;;;4.85;;
75984;SDS011;65033;44.660;37.758;2022-12-18T01:55:30;6.25;;;5.40;;
75984;SDS011;65033;44.660;37.758;2022-12-18T01:56:39;5.90;;;4.88;;
75984;SDS011;65033;44.660;37.758;2022-12-18T01:57:43;7.05;;;5.47;;
75984;SDS011;65033;44.660;37.758;2022-12-18T01:58:48;5.90;;;5.13;;
75984;SDS011;65033;44.660;37.758;2022-12-18T01:59:59;5.55;;;5.05;;
75984;SDS011;65033;44.660;37.758;2022-12-18T02:01:14;6.10;;;5.10;;
75984;SDS011;65033;44.660;37.758;2022-12-18T02:02:18;7.18;;;5.60;;
75984;SDS011;65033;44.660;37.758;2022-12-18T02:03:22;5.78;;;4.80;;
75984;SDS011;65033;44.660;37.758;2022-12-18T02:04:26;5.30;;;4.80;;
75984;SDS011;65033;44.660;37.758;2022-12-18T02:05:34;5.32;;;4.72;;
75984;SDS011;65033;44.660;37.758;2022-12-18T02:06:44;6.95;;;5.10;;
75984;SDS011;65033;44.660;37.758;2022-12-18T02:07:53;5.45;;;4.75;;
75984;SDS011;65033;44.660;37.758;2022-12-18T02:09:07;6.60;;;5.18;;
75984;SDS011;65033;44.660;37.758;2022-12-18T02:10:14;5.45;;;4.80;;
75984;SDS011;65033;44.660;37.758;2022-12-18T02:11:24;6.13;;;5.53;;
75984;SDS011;65033;44.660;37.758;2022-12-18T02:13:46;7.05;;;4.78;;
75984;SDS011;65033;44.660;37.758;2022-12-18T02:14:55;5.68;;;5.00;;
75984;SDS011;65033;44.660;37.758;2022-12-18T02:16:05;6.20;;;4.95;;
75984;SDS011;65033;44.660;37.758;2022-12-18T02:17:15;5.85;;;4.80;;
75984;SDS011;65033;44.660;37.758;2022-12-18T02:18:22;5.97;;;4.82;;
75984;SDS011;65033;44.660;37.758;2022-12-18T02:19:47;5.95;;;5.15;;
75984;SDS011;65033;44.660;37.758;2022-12-18T02:21:08;6.32;;;4.85;;
75984;SDS011;65033;44.660;37.758;2022-12-18T02:22:24;5.70;;;4.85;;
75984;SDS011;65033;44.660;37.758;2022-12-18T02:23:40;5.82;;;5.22;;
75984;SDS011;65033;44.660;37.758;2022-12-18T02:24:52;5.65;;;5.03;;
75984;SDS011;65033;44.660;37.758;2022-12-18T02:26:06;5.93;;;4.93;;
75984;SDS011;65033;44.660;37.758;2022-12-18T02:27:15;5.57;;;4.78;;
75984;SDS011;65033;44.660;37.758;2022-12-18T02:28:20;7.20;;;5.50;;
75984;SDS011;65033;44.660;37.758;2022-12-18T02:29:31;5.35;;;4.60;;
75984;SDS011;65033;44.660;37.758;2022-12-18T02:30:37;5.93;;;4.90;;
75984;SDS011;65033;44.660;37.758;2022-12-18T02:31:42;5.93;;;4.60;;
75984;SDS011;65033;44.660;37.758;2022-12-18T02:32:50;6.65;;;5.30;;
75984;SDS011;65033;44.660;37.758;2022-12-18T02:33:56;7.55;;;4.70;;
75984;SDS011;65033;44.660;37.758;2022-12-18T02:35:07;6.07;;;5.10;;
75984;SDS011;65033;44.660;37.758;2022-12-18T02:36:16;5.80;;;5.05;;
75984;SDS011;65033;44.660;37.758;2022-12-18T02:37:22;5.88;;;5.10;;
75984;SDS011;65033;44.660;37.758;2022-12-18T02:38:28;6.28;;;5.25;;
75984;SDS011;65033;44.660;37.758;2022-12-18T02:39:40;6.93;;;5.10;;
75984;SDS011;65033;44.660;37.758;2022-12-18T02:40:47;5.65;;;5.03;;
75984;SDS011;65033;44.660;37.758;2022-12-18T02:41:54;5.18;;;4.65;;
75984;SDS011;65033;44.660;37.758;2022-12-18T02:43:02;6.32;;;5.03;;
75984;SDS011;65033;44.660;37.758;2022-12-18T02:44:09;5.50;;;4.72;;
75984;SDS011;65033;44.660;37.758;2022-12-18T02:45:15;5.88;;;5.20;;
75984;SDS011;65033;44.660;37.758;2022-12-18T02:46:30;6.00;;;5.40;;
75984;SDS011;65033;44.660;37.758;2022-12-18T02:47:40;7.43;;;5.07;;
75984;SDS011;65033;44.660;37.758;2022-12-18T02:48:47;5.55;;;4.68;;
75984;SDS011;65033;44.660;37.758;2022-12-18T02:49:55;6.10;;;5.00;;
75984;SDS011;65033;44.660;37.758;2022-12-18T02:51:08;5.55;;;4.40;;
75984;SDS011;65033;44.660;37.758;2022-12-18T02:52:24;5.88;;;4.85;;
75984;SDS011;65033;44.660;37.758;2022-12-18T02:53:36;5.75;;;4.88;;
75984;SDS011;65033;44.660;37.758;2022-12-18T02:54:49;5.80;;;4.90;;
75984;SDS011;65033;44.660;37.758;2022-12-18T02:56:01;4.95;;;4.45;;
75984;SDS011;65033;44.660;37.758;2022-12-18T02:57:16;6.60;;;5.00;;
75984;SDS011;65033;44.660;37.758;2022-12-18T02:58:26;5.78;;;5.05;;
75984;SDS011;65033;44.660;37.758;2022-12-18T02:59:39;5.65;;;5.07;;
75984;SDS011;65033;44.660;37.758;2022-12-18T03:00:51;5.28;;;4.50;;
75984;SDS011;65033;44.660;37.758;2022-12-18T03:02:06;5.60;;;4.78;;
75984;SDS011;65033;44.660;37.758;2022-12-18T03:03:18;5.50;;;4.90;;
75984;SDS011;65033;44.660;37.758;2022-12-18T03:04:28;5.30;;;4.80;;
75984;SDS011;65033;44.660;37.758;2022-12-18T03:05:41;5.30;;;4.60;;
75984;SDS011;65033;44.660;37.758;2022-12-18T03:06:52;7.35;;;5.30;;
75984;SDS011;65033;44.660;37.758;2022-12-18T03:08:02;5.30;;;4.70;;
75984;SDS011;65033;44.660;37.758;2022-12-18T03:09:13;6.25;;;4.97;;
75984;SDS011;65033;44.660;37.758;2022-12-18T03:10:23;5.68;;;5.00;;
75984;SDS011;65033;44.660;37.758;2022-12-18T03:11:30;5.50;;;4.95;;
75984;SDS011;65033;44.660;37.758;2022-12-18T03:12:58;5.43;;;4.57;;
75984;SDS011;65033;44.660;37.758;2022-12-18T03:14:05;5.22;;;4.72;;
75984;SDS011;65033;44.660;37.758;2022-12-18T03:15:11;6.15;;;5.47;;
75984;SDS011;65033;44.660;37.758;2022-12-18T03:16:23;5.72;;;5.13;;
75984;SDS011;65033;44.660;37.758;2022-12-18T03:17:30;6.43;;;5.50;;
75984;SDS011;65033;44.660;37.758;2022-12-18T03:18:36;5.78;;;4.90;;
75984;SDS011;65033;44.660;37.758;2022-12-18T03:19:44;5.65;;;5.05;;
75984;SDS011;65033;44.660;37.758;2022-12-18T03:20:50;5.43;;;4.57;;
75984;SDS011;65033;44.660;37.758;2022-12-18T03:21:56;5.28;;;4.53;;
75984;SDS011;65033;44.660;37.758;2022-12-18T03:23:08;5.55;;;4.78;;
75984;SDS011;65033;44.660;37.758;2022-12-18T03:24:13;5.57;;;4.82;;
75984;SDS011;65033;44.660;37.758;2022-12-18T03:25:18;4.85;;;4.35;;
75984;SDS011;65033;44.660;37.758;2022-12-18T03:26:27;5.45;;;4.88;;
75984;SDS011;65033;44.660;37.758;2022-12-18T03:27:35;4.90;;;4.40;;
75984;SDS011;65033;44.660;37.758;2022-12-18T03:28:47;5.82;;;5.22;;
75984;SDS011;65033;44.660;37.758;2022-12-18T03:29:57;6.18;;;5.35;;
75984;SDS011;65033;44.660;37.758;2022-12-18T03:31:12;5.95;;;5.35;;
75984;SDS011;65033;44.660;37.758;2022-12-18T03:32:19;5.85;;;4.93;;
75984;SDS011;65033;44.660;37.758;2022-12-18T03:34:33;6.32;;;4.97;;
75984;SDS011;65033;44.660;37.758;2022-12-18T03:35:42;5.05;;;4.43;;
75984;SDS011;65033;44.660;37.758;2022-12-18T03:36:47;7.90;;;4.70;;
75984;SDS011;65033;44.660;37.758;2022-12-18T03:37:50;6.05;;;4.88;;
75984;SDS011;65033;44.660;37.758;2022-12-18T03:38:54;5.75;;;5.05;;
75984;SDS011;65033;44.660;37.758;2022-12-18T03:40:02;5.68;;;4.80;;
75984;SDS011;65033;44.660;37.758;2022-12-18T03:41:10;5.22;;;4.72;;
75984;SDS011;65033;44.660;37.758;2022-12-18T03:42:45;5.45;;;4.80;;
75984;SDS011;65033;44.660;37.758;2022-12-18T03:43:54;5.38;;;4.72;;
75984;SDS011;65033;44.660;37.758;2022-12-18T03:45:05;6.15;;;5.28;;
75984;SDS011;65033;44.660;37.758;2022-12-18T03:46:14;5.35;;;4.85;;
75984;SDS011;65033;44.660;37.758;2022-12-18T03:47:27;6.05;;;5.15;;
75984;SDS011;65033;44.660;37.758;2022-12-18T03:48:37;5.88;;;4.60;;
75984;SDS011;65033;44.660;37.758;2022-12-18T03:49:48;5.93;;;4.95;;
75984;SDS011;65033;44.660;37.758;2022-12-18T03:50:57;5.00;;;4.50;;
75984;SDS011;65033;44.660;37.758;2022-12-18T03:52:05;5.32;;;4.70;;
75984;SDS011;65033;44.660;37.758;2022-12-18T03:53:17;6.30;;;4.70;;
75984;SDS011;65033;44.660;37.758;2022-12-18T03:54:27;5.65;;;4.63;;
75984;SDS011;65033;44.660;37.758;2022-12-18T03:55:40;6.32;;;4.85;;
75984;SDS011;65033;44.660;37.758;2022-12-18T03:56:46;6.18;;;5.10;;
75984;SDS011;65033;44.660;37.758;2022-12-18T03:57:56;5.68;;;4.65;;
75984;SDS011;65033;44.660;37.758;2022-12-18T03:59:07;5.90;;;4.90;;
75984;SDS011;65033;44.660;37.758;2022-12-18T04:00:14;6.55;;;5.05;;
75984;SDS011;65033;44.660;37.758;2022-12-18T04:01:35;6.30;;;4.55;;
75984;SDS011;65033;44.660;37.758;2022-12-18T04:02:44;5.13;;;4.63;;
75984;SDS011;65033;44.660;37.758;2022-12-18T04:03:57;6.07;;;5.10;;
75984;SDS011;65033;44.660;37.758;2022-12-18T04:05:07;6.20;;;4.82;;
75984;SDS011;65033;44.660;37.758;2022-12-18T04:06:14;5.35;;;4.80;;
75984;SDS011;65033;44.660;37.758;2022-12-18T04:07:19;5.80;;;4.65;;
75984;SDS011;65033;44.660;37.758;2022-12-18T04:08:23;6.00;;;5.05;;
75984;SDS011;65033;44.660;37.758;2022-12-18T04:09:36;5.25;;;4.57;;
75984;SDS011;65033;44.660;37.758;2022-12-18T04:10:42;4.45;;;4.05;;
75984;SDS011;65033;44.660;37.758;2022-12-18T04:11:46;5.90;;;4.88;;
75984;SDS011;65033;44.660;37.758;2022-12-18T04:12:51;5.35;;;4.85;;
75984;SDS011;65033;44.660;37.758;2022-12-18T04:13:58;5.70;;;4.97;;
75984;SDS011;65033;44.660;37.758;2022-12-18T04:15:07;5.60;;;4.97;;
75984;SDS011;65033;44.660;37.758;2022-12-18T04:16:11;5.45;;;4.93;;
75984;SDS011;65033;44.660;37.758;2022-12-18T04:17:17;5.07;;;4.55;;
75984;SDS011;65033;44.660;37.758;2022-12-18T04:18:21;5.93;;;4.90;;
75984;SDS011;65033;44.660;37.758;2022-12-18T04:19:24;5.65;;;4.72;;
75984;SDS011;65033;44.660;37.758;2022-12-18T04:20:28;5.72;;;5.05;;
75984;SDS011;65033;44.660;37.758;2022-12-18T04:21:31;6.22;;;5.05;;
75984;SDS011;65033;44.660;37.758;2022-12-18T04:22:35;5.47;;;4.97;;
75984;SDS011;65033;44.660;37.758;2022-12-18T04:23:38;5.35;;;4.68;;
75984;SDS011;65033;44.660;37.758;2022-12-18T04:24:42;5.68;;;5.07;;
75984;SDS011;65033;44.660;37.758;2022-12-18T04:25:56;5.65;;;4.47;;
75984;SDS011;65033;44.660;37.758;2022-12-18T04:27:31;6.63;;;4.93;;
75984;SDS011;65033;44.660;37.758;2022-12-18T04:28:36;4.68;;;4.28;;
75984;SDS011;65033;44.660;37.758;2022-12-18T04:29:40;6.35;;;4.90;;
75984;SDS011;65033;44.660;37.758;2022-12-18T04:30:44;5.07;;;4.57;;
75984;SDS011;65033;44.660;37.758;2022-12-18T04:31:51;5.22;;;4.70;;
75984;SDS011;65033;44.660;37.758;2022-12-18T04:32:55;5.13;;;4.63;;
75984;SDS011;65033;44.660;37.758;2022-12-18T04:33:58;5.43;;;4.90;;
75984;SDS011;65033;44.660;37.758;2022-12-18T04:35:02;6.35;;;4.88;;
75984;SDS011;65033;44.660;37.758;2022-12-18T04:36:09;5.95;;;5.05;;
75984;SDS011;65033;44.660;37.758;2022-12-18T04:37:15;5.28;;;4.75;;
75984;SDS011;65033;44.660;37.758;2022-12-18T04:38:19;6.22;;;5.05;;
75984;SDS011;65033;44.660;37.758;2022-12-18T04:39:27;7.07;;;5.07;;
75984;SDS011;65033;44.660;37.758;2022-12-18T04:40:35;5.68;;;5.18;;
75984;SDS011;65033;44.660;37.758;2022-12-18T04:42:47;5.82;;;4.60;;
75984;SDS011;65033;44.660;37.758;2022-12-18T04:43:51;5.13;;;4.28;;
75984;SDS011;65033;44.660;37.758;2022-12-18T04:44:54;6.40;;;4.88;;
75984;SDS011;65033;44.660;37.758;2022-12-18T04:46:02;5.95;;;4.50;;
75984;SDS011;65033;44.660;37.758;2022-12-18T04:47:06;4.78;;;4.22;;
75984;SDS011;65033;44.660;37.758;2022-12-18T04:48:09;5.20;;;4.70;;
75984;SDS011;65033;44.660;37.758;2022-12-18T04:49:13;5.18;;;4.60;;
75984;SDS011;65033;44.660;37.758;2022-12-18T04:50:16;6.45;;;4.88;;
75984;SDS011;65033;44.660;37.758;2022-12-18T04:51:20;5.75;;;4.68;;
75984;SDS011;65033;44.660;37.758;2022-12-18T04:52:27;5.22;;;4.72;;
75984;SDS011;65033;44.660;37.758;2022-12-18T04:53:33;5.55;;;4.68;;
75984;SDS011;65033;44.660;37.758;2022-12-18T04:54:36;5.22;;;4.68;;
75984;SDS011;65033;44.660;37.758;2022-12-18T04:55:39;6.18;;;4.50;;
75984;SDS011;65033;44.660;37.758;2022-12-18T04:56:43;5.28;;;4.65;;
75984;SDS011;65033;44.660;37.758;2022-12-18T04:57:46;5.60;;;4.65;;
75984;SDS011;65033;44.660;37.758;2022-12-18T04:58:49;6.22;;;5.25;;
75984;SDS011;65033;44.660;37.758;2022-12-18T04:59:52;5.20;;;4.70;;
75984;SDS011;65033;44.660;37.758;2022-12-18T05:00:56;5.85;;;4.93;;
75984;SDS011;65033;44.660;37.758;2022-12-18T05:02:01;5.35;;;4.72;;
75984;SDS011;65033;44.660;37.758;2022-12-18T05:03:05;5.07;;;4.57;;
75984;SDS011;65033;44.660;37.758;2022-12-18T05:04:08;5.40;;;4.90;;
75984;SDS011;65033;44.660;37.758;2022-12-18T05:05:11;5.57;;;4.68;;
75984;SDS011;65033;44.660;37.758;2022-12-18T05:06:14;7.43;;;5.07;;
75984;SDS011;65033;44.660;37.758;2022-12-18T05:07:18;5.78;;;4.72;;
75984;SDS011;65033;44.660;37.758;2022-12-18T05:08:21;5.40;;;4.85;;
75984;SDS011;65033;44.660;37.758;2022-12-18T05:09:25;6.30;;;4.97;;
75984;SDS011;65033;44.660;37.758;2022-12-18T05:10:28;5.20;;;4.65;;
75984;SDS011;65033;44.660;37.758;2022-12-18T05:11:33;5.45;;;4.88;;
75984;SDS011;65033;44.660;37.758;2022-12-18T05:12:36;5.93;;;4.88;;
75984;SDS011;65033;44.660;37.758;2022-12-18T05:13:59;5.10;;;4.25;;
75984;SDS011;65033;44.660;37.758;2022-12-18T05:15:03;5.78;;;5.20;;
75984;SDS011;65033;44.660;37.758;2022-12-18T05:16:07;5.75;;;5.15;;
75984;SDS011;65033;44.660;37.758;2022-12-18T05:17:11;5.07;;;4.55;;
75984;SDS011;65033;44.660;37.758;2022-12-18T05:18:15;5.90;;;4.95;;
75984;SDS011;65033;44.660;37.758;2022-12-18T05:19:18;5.18;;;4.68;;
75984;SDS011;65033;44.660;37.758;2022-12-18T05:20:21;6.80;;;5.05;;
75984;SDS011;65033;44.660;37.758;2022-12-18T05:21:25;5.30;;;4.75;;
75984;SDS011;65033;44.660;37.758;2022-12-18T05:22:29;5.55;;;4.38;;
75984;SDS011;65033;44.660;37.758;2022-12-18T05:23:32;6.35;;;5.03;;
75984;SDS011;65033;44.660;37.758;2022-12-18T05:24:35;5.57;;;4.40;;
75984;SDS011;65033;44.660;37.758;2022-12-18T05:25:38;6.50;;;5.05;;
75984;SDS011;65033;44.660;37.758;2022-12-18T05:26:42;6.53;;;5.05;;
75984;SDS011;65033;44.660;37.758;2022-12-18T05:27:45;5.82;;;5.00;;
75984;SDS011;65033;44.660;37.758;2022-12-18T05:28:49;5.15;;;4.22;;
75984;SDS011;65033;44.660;37.758;2022-12-18T05:29:52;6.07;;;4.65;;
75984;SDS011;65033;44.660;37.758;2022-12-18T05:30:56;5.70;;;4.82;;
75984;SDS011;65033;44.660;37.758;2022-12-18T05:32:01;5.55;;;4.47;;
75984;SDS011;65033;44.660;37.758;2022-12-18T05:33:05;5.22;;;4.38;;
75984;SDS011;65033;44.660;37.758;2022-12-18T05:34:09;5.28;;;4.78;;
75984;SDS011;65033;44.660;37.758;2022-12-18T05:35:12;5.68;;;4.55;;
75984;SDS011;65033;44.660;37.758;2022-12-18T05:36:15;5.13;;;4.53;;
75984;SDS011;65033;44.660;37.758;2022-12-18T05:37:18;5.63;;;5.13;;
75984;SDS011;65033;44.660;37.758;2022-12-18T05:38:23;7.25;;;4.95;;
75984;SDS011;65033;44.660;37.758;2022-12-18T05:39:28;5.22;;;4.70;;
75984;SDS011;65033;44.660;37.758;2022-12-18T05:40:31;4.93;;;4.40;;
75984;SDS011;65033;44.660;37.758;2022-12-18T05:41:34;6.70;;;4.88;;
75984;SDS011;65033;44.660;37.758;2022-12-18T05:42:37;5.65;;;4.45;;
75984;SDS011;65033;44.660;37.758;2022-12-18T05:43:41;6.00;;;4.80;;
75984;SDS011;65033;44.660;37.758;2022-12-18T05:44:44;5.38;;;4.60;;
75984;SDS011;65033;44.660;37.758;2022-12-18T05:45:47;6.32;;;4.90;;
75984;SDS011;65033;44.660;37.758;2022-12-18T05:46:51;6.45;;;4.88;;
75984;SDS011;65033;44.660;37.758;2022-12-18T05:47:54;5.28;;;4.63;;
75984;SDS011;65033;44.660;37.758;2022-12-18T05:49:00;6.85;;;5.03;;
75984;SDS011;65033;44.660;37.758;2022-12-18T05:50:04;5.93;;;5.30;;
75984;SDS011;65033;44.660;37.758;2022-12-18T05:51:09;5.68;;;4.50;;
75984;SDS011;65033;44.660;37.758;2022-12-18T05:52:14;6.15;;;4.90;;
75984;SDS011;65033;44.660;37.758;2022-12-18T05:53:18;4.88;;;4.22;;
75984;SDS011;65033;44.660;37.758;2022-12-18T05:54:22;6.40;;;5.38;;
75984;SDS011;65033;44.660;37.758;2022-12-18T05:55:25;5.78;;;5.00;;
75984;SDS011;65033;44.660;37.758;2022-12-18T05:56:29;5.68;;;4.93;;
75984;SDS011;65033;44.660;37.758;2022-12-18T05:57:32;5.65;;;5.00;;
75984;SDS011;65033;44.660;37.758;2022-12-18T05:58:35;6.03;;;5.22;;
75984;SDS011;65033;44.660;37.758;2022-12-18T05:59:38;5.78;;;5.10;;
75984;SDS011;65033;44.660;37.758;2022-12-18T06:00:43;7.07;;;5.32;;
75984;SDS011;65033;44.660;37.758;2022-12-18T06:01:48;5.95;;;4.68;;
75984;SDS011;65033;44.660;37.758;2022-12-18T06:02:52;7.80;;;5.07;;
75984;SDS011;65033;44.660;37.758;2022-12-18T06:03:55;5.70;;;5.00;;
75984;SDS011;65033;44.660;37.758;2022-12-18T06:05:00;7.70;;;5.30;;
75984;SDS011;65033;44.660;37.758;2022-12-18T06:06:03;7.03;;;5.80;;
75984;SDS011;65033;44.660;37.758;2022-12-18T06:07:07;6.55;;;4.88;;
75984;SDS011;65033;44.660;37.758;2022-12-18T06:08:10;10.65;;;5.82;;
75984;SDS011;65033;44.660;37.758;2022-12-18T06:09:14;7.35;;;5.60;;
75984;SDS011;65033;44.660;37.758;2022-12-18T06:10:17;7.32;;;5.60;;
75984;SDS011;65033;44.660;37.758;2022-12-18T06:11:21;6.60;;;5.90;;
75984;SDS011;65033;44.660;37.758;2022-12-18T06:12:25;8.05;;;5.90;;
75984;SDS011;65033;44.660;37.758;2022-12-18T06:13:29;7.05;;;5.78;;
75984;SDS011;65033;44.660;37.758;2022-12-18T06:14:32;6.50;;;5.38;;
75984;SDS011;65033;44.660;37.758;2022-12-18T06:15:36;6.75;;;5.47;;
75984;SDS011;65033;44.660;37.758;2022-12-18T06:16:39;8.70;;;5.10;;
75984;SDS011;65033;44.660;37.758;2022-12-18T06:17:43;8.25;;;5.53;;
75984;SDS011;65033;44.660;37.758;2022-12-18T06:18:46;6.65;;;5.43;;
75984;SDS011;65033;44.660;37.758;2022-12-18T06:19:49;7.30;;;5.13;;
75984;SDS011;65033;44.660;37.758;2022-12-18T06:20:57;6.70;;;5.45;;
75984;SDS011;65033;44.660;37.758;2022-12-18T06:22:01;6.57;;;5.25;;
75984;SDS011;65033;44.660;37.758;2022-12-18T06:23:04;6.88;;;5.50;;
75984;SDS011;65033;44.660;37.758;2022-12-18T06:24:08;6.07;;;5.03;;
75984;SDS011;65033;44.660;37.758;2022-12-18T06:25:11;6.22;;;5.32;;
75984;SDS011;65033;44.660;37.758;2022-12-18T06:26:15;5.80;;;4.95;;
75984;SDS011;65033;44.660;37.758;2022-12-18T06:27:18;6.50;;;5.40;;
75984;SDS011;65033;44.660;37.758;2022-12-18T06:28:21;6.38;;;5.32;;
75984;SDS011;65033;44.660;37.758;2022-12-18T06:29:25;5.88;;;4.82;;
75984;SDS011;65033;44.660;37.758;2022-12-18T06:30:28;7.20;;;5.28;;
75984;SDS011;65033;44.660;37.758;2022-12-18T06:31:31;7.05;;;5.30;;
75984;SDS011;65033;44.660;37.758;2022-12-18T06:32:35;5.90;;;4.50;;
75984;SDS011;65033;44.660;37.758;2022-12-18T06:33:38;7.25;;;6.55;;
75984;SDS011;65033;44.660;37.758;2022-12-18T06:34:42;9.57;;;8.48;;
75984;SDS011;65033;44.660;37.758;2022-12-18T06:35:45;10.70;;;9.60;;
75984;SDS011;65033;44.660;37.758;2022-12-18T06:36:50;10.68;;;9.43;;
75984;SDS011;65033;44.660;37.758;2022-12-18T06:37:53;10.68;;;9.07;;
75984;SDS011;65033;44.660;37.758;2022-12-18T06:38:56;7.95;;;7.15;;